sensor_id;sensor_type;location;lat;lon;timestamp;temperature;humidity
6178;DHT22;3122;48.208;11.174;2023-07-31T00:03:13;15.70;1.00
6178;DHT22;3122;48.208;11.174;2023-07-31T00:08:13;15.70;1.00
6178;DHT22;3122;48.208;11.174;2023-07-31T00:13:14;15.60;1.00
6178;DHT22;3122;48.208;11.174;2023-07-31T00:18:15;15.70;1.00
6178;DHT22;3122;48.208;11.174;2023-07-31T00:23:15;15.70;1.00
6178;DHT22;3122;48.208;11.174;2023-07-31T00:28:16;15.50;1.00
6178;DHT22;3122;48.208;11.174;2023-07-31T00:33:16;15.60;1.00
6178;DHT22;3122;48.208;11.174;2023-07-31T00:38:17;15.70;1.00
6178;DHT22;3122;48.208;11.174;2023-07-31T00:43:17;15.60;1.00
6178;DHT22;3122;48.208;11.174;2023-07-31T00:48:19;15.50;1.00
6178;DHT22;3122;48.208;11.174;2023-07-31T00:53:19;15.50;1.00
6178;DHT22;3122;48.208;11.174;2023-07-31T00:58:20;15.60;1.00
6178;DHT22;3122;48.208;11.174;2023-07-31T01:03:21;15.60;1.00
6178;DHT22;3122;48.208;11.174;2023-07-31T01:08:48;15.60;1.00
6178;DHT22;3122;48.208;11.174;2023-07-31T01:13:55;15.50;1.00
6178;DHT22;3122;48.208;11.174;2023-07-31T01:18:56;15.50;1.00
6178;DHT22;3122;48.208;11.174;2023-07-31T01:29:47;15.40;1.00
6178;DHT22;3122;48.208;11.174;2023-07-31T01:34:49;15.40;1.00
6178;DHT22;3122;48.208;11.174;2023-07-31T01:39:51;15.30;1.00
6178;DHT22;3122;48.208;11.174;2023-07-31T01:44:52;15.40;1.00
6178;DHT22;3122;48.208;11.174;2023-07-31T01:49:53;15.50;1.00
6178;DHT22;3122;48.208;11.174;2023-07-31T01:54:53;15.50;1.00
6178;DHT22;3122;48.208;11.174;2023-07-31T01:59:54;15.50;1.00
6178;DHT22;3122;48.208;11.174;2023-07-31T02:04:54;15.50;1.00
6178;DHT22;3122;48.208;11.174;2023-07-31T02:09:55;15.50;1.00
6178;DHT22;3122;48.208;11.174;2023-07-31T02:14:55;15.50;1.00
6178;DHT22;3122;48.208;11.174;2023-07-31T02:19:56;15.50;1.00
6178;DHT22;3122;48.208;11.174;2023-07-31T02:24:56;15.40;1.00
6178;DHT22;3122;48.208;11.174;2023-07-31T02:29:57;15.40;1.00
6178;DHT22;3122;48.208;11.174;2023-07-31T02:34:59;15.40;1.00
6178;DHT22;3122;48.208;11.174;2023-07-31T02:40:00;15.40;1.00
6178;DHT22;3122;48.208;11.174;2023-07-31T02:45:00;15.30;1.00
6178;DHT22;3122;48.208;11.174;2023-07-31T02:50:02;15.20;1.00
6178;DHT22;3122;48.208;11.174;2023-07-31T02:55:03;15.10;1.00
6178;DHT22;3122;48.208;11.174;2023-07-31T03:00:05;15.10;1.00
6178;DHT22;3122;48.208;11.174;2023-07-31T03:05:07;15.10;1.00
6178;DHT22;3122;48.208;11.174;2023-07-31T03:10:08;15.00;1.00
6178;DHT22;3122;48.208;11.174;2023-07-31T03:15:09;14.90;1.00
6178;DHT22;3122;48.208;11.174;2023-07-31T03:20:10;14.80;1.00
6178;DHT22;3122;48.208;11.174;2023-07-31T03:25:11;14.80;1.00
6178;DHT22;3122;48.208;11.174;2023-07-31T03:30:11;14.80;1.00
6178;DHT22;3122;48.208;11.174;2023-07-31T03:35:12;14.80;1.00
6178;DHT22;3122;48.208;11.174;2023-07-31T03:40:12;14.80;1.00
6178;DHT22;3122;48.208;11.174;2023-07-31T03:45:13;14.80;1.00
6178;DHT22;3122;48.208;11.174;2023-07-31T03:50:14;14.80;1.00
6178;DHT22;3122;48.208;11.174;2023-07-31T03:55:14;14.80;1.00
6178;DHT22;3122;48.208;11.174;2023-07-31T04:00:15;14.80;1.00
6178;DHT22;3122;48.208;11.174;2023-07-31T04:05:16;14.80;1.00
6178;DHT22;3122;48.208;11.174;2023-07-31T04:10:16;14.80;1.00
6178;DHT22;3122;48.208;11.174;2023-07-31T04:15:17;14.80;1.00
6178;DHT22;3122;48.208;11.174;2023-07-31T04:20:17;14.60;1.00
6178;DHT22;3122;48.208;11.174;2023-07-31T04:25:18;14.60;1.00
6178;DHT22;3122;48.208;11.174;2023-07-31T04:30:18;14.60;1.00
6178;DHT22;3122;48.208;11.174;2023-07-31T04:35:19;14.70;1.00
6178;DHT22;3122;48.208;11.174;2023-07-31T04:40:20;14.60;1.00
6178;DHT22;3122;48.208;11.174;2023-07-31T04:45:21;14.60;1.00
6178;DHT22;3122;48.208;11.174;2023-07-31T04:50:21;14.60;1.00
6178;DHT22;3122;48.208;11.174;2023-07-31T04:55:22;14.70;1.00
6178;DHT22;3122;48.208;11.174;2023-07-31T05:00:22;14.90;1.00
6178;DHT22;3122;48.208;11.174;2023-07-31T05:05:23;15.10;1.00
6178;DHT22;3122;48.208;11.174;2023-07-31T05:10:24;15.20;1.00
6178;DHT22;3122;48.208;11.174;2023-07-31T05:15:24;15.30;1.00
6178;DHT22;3122;48.208;11.174;2023-07-31T05:20:25;15.50;1.00
6178;DHT22;3122;48.208;11.174;2023-07-31T05:25:25;15.80;1.00
6178;DHT22;3122;48.208;11.174;2023-07-31T05:30:26;15.90;1.00
6178;DHT22;3122;48.208;11.174;2023-07-31T05:35:26;16.00;1.00
6178;DHT22;3122;48.208;11.174;2023-07-31T05:40:27;16.10;1.00
6178;DHT22;3122;48.208;11.174;2023-07-31T05:45:28;16.10;1.00
6178;DHT22;3122;48.208;11.174;2023-07-31T05:50:28;16.30;1.00
6178;DHT22;3122;48.208;11.174;2023-07-31T05:55:29;16.40;1.00
6178;DHT22;3122;48.208;11.174;2023-07-31T06:00:29;16.60;1.00
6178;DHT22;3122;48.208;11.174;2023-07-31T06:05:30;16.70;1.00
6178;DHT22;3122;48.208;11.174;2023-07-31T06:10:30;16.70;1.00
6178;DHT22;3122;48.208;11.174;2023-07-31T06:15:31;16.80;1.00
6178;DHT22;3122;48.208;11.174;2023-07-31T06:20:32;16.70;1.00
6178;DHT22;3122;48.208;11.174;2023-07-31T06:25:33;16.80;1.00
6178;DHT22;3122;48.208;11.174;2023-07-31T06:30:33;16.70;1.00
6178;DHT22;3122;48.208;11.174;2023-07-31T06:35:34;16.80;1.00
6178;DHT22;3122;48.208;11.174;2023-07-31T06:40:34;17.00;1.00
6178;DHT22;3122;48.208;11.174;2023-07-31T06:45:36;17.10;1.00
6178;DHT22;3122;48.208;11.174;2023-07-31T06:50:36;17.20;1.00
6178;DHT22;3122;48.208;11.174;2023-07-31T06:55:37;17.30;1.00
6178;DHT22;3122;48.208;11.174;2023-07-31T07:00:38;17.30;1.00
6178;DHT22;3122;48.208;11.174;2023-07-31T07:05:38;17.30;1.00
6178;DHT22;3122;48.208;11.174;2023-07-31T07:10:39;17.60;1.00
6178;DHT22;3122;48.208;11.174;2023-07-31T07:15:39;17.90;1.00
6178;DHT22;3122;48.208;11.174;2023-07-31T07:20:40;17.80;1.00
6178;DHT22;3122;48.208;11.174;2023-07-31T07:25:46;17.80;1.00
6178;DHT22;3122;48.208;11.174;2023-07-31T07:30:53;17.80;1.00
6178;DHT22;3122;48.208;11.174;2023-07-31T07:35:54;18.00;1.00
6178;DHT22;3122;48.208;11.174;2023-07-31T07:40:54;18.20;1.00
6178;DHT22;3122;48.208;11.174;2023-07-31T07:45:55;18.20;1.00
6178;DHT22;3122;48.208;11.174;2023-07-31T07:50:55;18.30;1.00
6178;DHT22;3122;48.208;11.174;2023-07-31T07:55:56;18.50;1.00
6178;DHT22;3122;48.208;11.174;2023-07-31T08:00:57;18.90;1.00
6178;DHT22;3122;48.208;11.174;2023-07-31T08:05:58;19.20;1.00
6178;DHT22;3122;48.208;11.174;2023-07-31T08:10:59;19.30;1.00
6178;DHT22;3122;48.208;11.174;2023-07-31T08:16:00;19.10;1.00
6178;DHT22;3122;48.208;11.174;2023-07-31T08:21:02;18.90;1.00
6178;DHT22;3122;48.208;11.174;2023-07-31T08:26:03;18.80;1.00
6178;DHT22;3122;48.208;11.174;2023-07-31T08:31:03;18.60;1.00
6178;DHT22;3122;48.208;11.174;2023-07-31T08:36:04;18.60;1.00
6178;DHT22;3122;48.208;11.174;2023-07-31T08:41:05;18.60;1.00
6178;DHT22;3122;48.208;11.174;2023-07-31T08:46:06;18.70;1.00
6178;DHT22;3122;48.208;11.174;2023-07-31T08:51:06;18.90;1.00
6178;DHT22;3122;48.208;11.174;2023-07-31T08:56:07;19.00;1.00
6178;DHT22;3122;48.208;11.174;2023-07-31T09:01:08;19.00;1.00
6178;DHT22;3122;48.208;11.174;2023-07-31T09:06:10;18.90;1.00
6178;DHT22;3122;48.208;11.174;2023-07-31T09:11:11;19.10;1.00
6178;DHT22;3122;48.208;11.174;2023-07-31T09:16:12;19.10;1.00
6178;DHT22;3122;48.208;11.174;2023-07-31T09:21:13;19.10;1.00
6178;DHT22;3122;48.208;11.174;2023-07-31T09:26:32;19.10;1.00
6178;DHT22;3122;48.208;11.174;2023-07-31T09:31:43;19.30;1.00
6178;DHT22;3122;48.208;11.174;2023-07-31T09:36:50;19.70;1.00
6178;DHT22;3122;48.208;11.174;2023-07-31T09:41:55;19.90;1.00
6178;DHT22;3122;48.208;11.174;2023-07-31T09:46:56;20.20;1.00
6178;DHT22;3122;48.208;11.174;2023-07-31T09:51:56;20.10;1.00
6178;DHT22;3122;48.208;11.174;2023-07-31T09:56:58;20.00;1.00
6178;DHT22;3122;48.208;11.174;2023-07-31T10:02:00;20.20;1.00
6178;DHT22;3122;48.208;11.174;2023-07-31T10:07:02;20.40;1.00
6178;DHT22;3122;48.208;11.174;2023-07-31T10:12:05;20.80;1.00
6178;DHT22;3122;48.208;11.174;2023-07-31T10:17:09;20.50;1.00
6178;DHT22;3122;48.208;11.174;2023-07-31T10:22:11;20.70;1.00
6178;DHT22;3122;48.208;11.174;2023-07-31T10:27:12;20.70;1.00
6178;DHT22;3122;48.208;11.174;2023-07-31T10:32:13;20.60;1.00
6178;DHT22;3122;48.208;11.174;2023-07-31T10:37:29;20.80;1.00
6178;DHT22;3122;48.208;11.174;2023-07-31T10:42:35;21.20;1.00
6178;DHT22;3122;48.208;11.174;2023-07-31T10:47:38;21.60;1.00
6178;DHT22;3122;48.208;11.174;2023-07-31T10:52:39;21.20;1.00
6178;DHT22;3122;48.208;11.174;2023-07-31T10:57:39;21.20;1.00
6178;DHT22;3122;48.208;11.174;2023-07-31T11:02:40;21.20;1.00
6178;DHT22;3122;48.208;11.174;2023-07-31T11:07:50;21.00;1.00
6178;DHT22;3122;48.208;11.174;2023-07-31T11:12:51;21.00;1.00
6178;DHT22;3122;48.208;11.174;2023-07-31T11:17:52;21.10;1.00
6178;DHT22;3122;48.208;11.174;2023-07-31T11:22:52;21.50;1.00
6178;DHT22;3122;48.208;11.174;2023-07-31T11:27:53;21.70;1.00
6178;DHT22;3122;48.208;11.174;2023-07-31T11:32:55;21.60;1.00
6178;DHT22;3122;48.208;11.174;2023-07-31T11:37:56;21.70;1.00
6178;DHT22;3122;48.208;11.174;2023-07-31T11:43:04;21.70;1.00
6178;DHT22;3122;48.208;11.174;2023-07-31T11:48:04;21.60;1.00
6178;DHT22;3122;48.208;11.174;2023-07-31T11:53:07;21.80;1.00
6178;DHT22;3122;48.208;11.174;2023-07-31T11:58:09;22.00;1.00
6178;DHT22;3122;48.208;11.174;2023-07-31T12:03:10;22.20;1.00
6178;DHT22;3122;48.208;11.174;2023-07-31T12:08:11;22.20;1.00
6178;DHT22;3122;48.208;11.174;2023-07-31T12:13:28;22.30;1.00
6178;DHT22;3122;48.208;11.174;2023-07-31T12:18:36;22.60;1.00
6178;DHT22;3122;48.208;11.174;2023-07-31T12:23:37;22.70;1.00
6178;DHT22;3122;48.208;11.174;2023-07-31T12:28:46;22.80;1.00
6178;DHT22;3122;48.208;11.174;2023-07-31T12:33:48;23.30;1.00
6178;DHT22;3122;48.208;11.174;2023-07-31T12:38:50;23.10;1.00
6178;DHT22;3122;48.208;11.174;2023-07-31T12:43:51;23.20;1.00
6178;DHT22;3122;48.208;11.174;2023-07-31T12:48:52;22.80;1.00
6178;DHT22;3122;48.208;11.174;2023-07-31T12:53:52;22.80;1.00
6178;DHT22;3122;48.208;11.174;2023-07-31T12:58:53;22.70;1.00
6178;DHT22;3122;48.208;11.174;2023-07-31T13:03:54;22.40;1.00
6178;DHT22;3122;48.208;11.174;2023-07-31T13:08:54;22.40;1.00
6178;DHT22;3122;48.208;11.174;2023-07-31T13:13:55;22.70;1.00
6178;DHT22;3122;48.208;11.174;2023-07-31T13:18:55;22.40;1.00
6178;DHT22;3122;48.208;11.174;2023-07-31T13:23:56;22.20;1.00
6178;DHT22;3122;48.208;11.174;2023-07-31T13:28:58;22.10;1.00
6178;DHT22;3122;48.208;11.174;2023-07-31T13:33:58;22.00;1.00
6178;DHT22;3122;48.208;11.174;2023-07-31T13:38:59;22.20;1.00
6178;DHT22;3122;48.208;11.174;2023-07-31T13:44:00;22.40;1.00
6178;DHT22;3122;48.208;11.174;2023-07-31T13:49:00;22.60;1.00
6178;DHT22;3122;48.208;11.174;2023-07-31T13:54:01;22.80;1.00
6178;DHT22;3122;48.208;11.174;2023-07-31T13:59:02;23.00;1.00
6178;DHT22;3122;48.208;11.174;2023-07-31T14:04:04;22.90;1.00
6178;DHT22;3122;48.208;11.174;2023-07-31T14:09:04;22.90;1.00
6178;DHT22;3122;48.208;11.174;2023-07-31T14:14:05;22.80;1.00
6178;DHT22;3122;48.208;11.174;2023-07-31T14:19:06;22.80;1.00
6178;DHT22;3122;48.208;11.174;2023-07-31T14:24:08;23.20;1.00
6178;DHT22;3122;48.208;11.174;2023-07-31T14:29:09;23.70;1.00
6178;DHT22;3122;48.208;11.174;2023-07-31T14:34:09;24.00;1.00
6178;DHT22;3122;48.208;11.174;2023-07-31T14:39:10;23.80;1.00
6178;DHT22;3122;48.208;11.174;2023-07-31T14:44:10;23.40;1.00
6178;DHT22;3122;48.208;11.174;2023-07-31T14:49:11;23.00;1.00
6178;DHT22;3122;48.208;11.174;2023-07-31T14:54:11;23.00;1.00
6178;DHT22;3122;48.208;11.174;2023-07-31T14:59:12;22.30;1.00
6178;DHT22;3122;48.208;11.174;2023-07-31T15:04:12;21.90;1.00
6178;DHT22;3122;48.208;11.174;2023-07-31T15:09:13;21.80;1.00
6178;DHT22;3122;48.208;11.174;2023-07-31T15:14:13;21.60;1.00
6178;DHT22;3122;48.208;11.174;2023-07-31T15:19:14;21.40;1.00
6178;DHT22;3122;48.208;11.174;2023-07-31T15:24:15;21.40;1.00
6178;DHT22;3122;48.208;11.174;2023-07-31T15:29:16;21.40;1.00
6178;DHT22;3122;48.208;11.174;2023-07-31T15:34:19;21.30;1.00
6178;DHT22;3122;48.208;11.174;2023-07-31T15:39:20;21.20;1.00
6178;DHT22;3122;48.208;11.174;2023-07-31T15:44:21;21.10;1.00
6178;DHT22;3122;48.208;11.174;2023-07-31T15:49:21;21.00;1.00
6178;DHT22;3122;48.208;11.174;2023-07-31T15:54:22;21.00;1.00
6178;DHT22;3122;48.208;11.174;2023-07-31T15:59:23;21.00;1.00
6178;DHT22;3122;48.208;11.174;2023-07-31T16:04:23;21.10;1.00
6178;DHT22;3122;48.208;11.174;2023-07-31T16:09:24;21.10;1.00
6178;DHT22;3122;48.208;11.174;2023-07-31T16:14:25;21.00;1.00
6178;DHT22;3122;48.208;11.174;2023-07-31T16:19:26;21.20;1.00
6178;DHT22;3122;48.208;11.174;2023-07-31T16:24:27;20.80;1.00
6178;DHT22;3122;48.208;11.174;2023-07-31T16:29:28;20.90;1.00
6178;DHT22;3122;48.208;11.174;2023-07-31T16:34:29;20.80;1.00
6178;DHT22;3122;48.208;11.174;2023-07-31T16:39:30;20.80;1.00
6178;DHT22;3122;48.208;11.174;2023-07-31T16:44:36;20.90;1.00
6178;DHT22;3122;48.208;11.174;2023-07-31T16:49:37;20.90;1.00
6178;DHT22;3122;48.208;11.174;2023-07-31T16:54:38;21.20;1.00
6178;DHT22;3122;48.208;11.174;2023-07-31T16:59:39;21.20;1.00
6178;DHT22;3122;48.208;11.174;2023-07-31T17:04:40;21.40;1.00
6178;DHT22;3122;48.208;11.174;2023-07-31T17:09:41;21.30;1.00
6178;DHT22;3122;48.208;11.174;2023-07-31T17:14:43;21.30;1.00
6178;DHT22;3122;48.208;11.174;2023-07-31T17:19:44;21.40;1.00
6178;DHT22;3122;48.208;11.174;2023-07-31T17:24:45;21.40;1.00
6178;DHT22;3122;48.208;11.174;2023-07-31T17:29:47;21.30;1.00
6178;DHT22;3122;48.208;11.174;2023-07-31T17:34:48;21.30;1.00
6178;DHT22;3122;48.208;11.174;2023-07-31T17:39:49;21.40;1.00
6178;DHT22;3122;48.208;11.174;2023-07-31T17:44:50;21.40;1.00
6178;DHT22;3122;48.208;11.174;2023-07-31T17:49:51;21.40;1.00
6178;DHT22;3122;48.208;11.174;2023-07-31T17:54:52;21.50;1.00
6178;DHT22;3122;48.208;11.174;2023-07-31T17:59:54;21.50;1.00
6178;DHT22;3122;48.208;11.174;2023-07-31T18:04:55;21.40;1.00
6178;DHT22;3122;48.208;11.174;2023-07-31T18:09:56;21.20;1.00
6178;DHT22;3122;48.208;11.174;2023-07-31T18:14:57;21.10;1.00
6178;DHT22;3122;48.208;11.174;2023-07-31T18:19:58;21.20;1.00
6178;DHT22;3122;48.208;11.174;2023-07-31T18:24:59;21.10;1.00
6178;DHT22;3122;48.208;11.174;2023-07-31T18:30:00;21.00;1.00
6178;DHT22;3122;48.208;11.174;2023-07-31T18:35:01;21.00;1.00
6178;DHT22;3122;48.208;11.174;2023-07-31T18:40:03;20.90;1.00
6178;DHT22;3122;48.208;11.174;2023-07-31T18:45:06;20.80;1.00
6178;DHT22;3122;48.208;11.174;2023-07-31T18:50:07;20.60;1.00
6178;DHT22;3122;48.208;11.174;2023-07-31T18:55:08;20.50;1.00
6178;DHT22;3122;48.208;11.174;2023-07-31T19:00:10;20.30;1.00
6178;DHT22;3122;48.208;11.174;2023-07-31T19:05:11;20.30;1.00
6178;DHT22;3122;48.208;11.174;2023-07-31T19:10:12;20.20;1.00
6178;DHT22;3122;48.208;11.174;2023-07-31T19:15:13;20.10;1.00
6178;DHT22;3122;48.208;11.174;2023-07-31T19:20:13;19.90;1.00
6178;DHT22;3122;48.208;11.174;2023-07-31T19:25:14;19.90;1.00
6178;DHT22;3122;48.208;11.174;2023-07-31T19:30:15;19.80;1.00
6178;DHT22;3122;48.208;11.174;2023-07-31T19:35:16;19.60;1.00
6178;DHT22;3122;48.208;11.174;2023-07-31T19:40:19;19.50;1.00
6178;DHT22;3122;48.208;11.174;2023-07-31T19:45:21;19.40;1.00
6178;DHT22;3122;48.208;11.174;2023-07-31T19:50:22;19.30;1.00
6178;DHT22;3122;48.208;11.174;2023-07-31T19:55:22;19.30;1.00
6178;DHT22;3122;48.208;11.174;2023-07-31T20:00:23;19.30;1.00
6178;DHT22;3122;48.208;11.174;2023-07-31T20:05:25;19.20;1.00
6178;DHT22;3122;48.208;11.174;2023-07-31T20:10:26;19.20;1.00
6178;DHT22;3122;48.208;11.174;2023-07-31T20:15:26;19.10;1.00
6178;DHT22;3122;48.208;11.174;2023-07-31T20:20:27;19.10;1.00
6178;DHT22;3122;48.208;11.174;2023-07-31T20:25:29;19.10;1.00
6178;DHT22;3122;48.208;11.174;2023-07-31T20:30:33;19.00;1.00
6178;DHT22;3122;48.208;11.174;2023-07-31T20:35:33;19.00;1.00
6178;DHT22;3122;48.208;11.174;2023-07-31T20:40:34;19.00;1.00
6178;DHT22;3122;48.208;11.174;2023-07-31T20:45:34;18.90;1.00
6178;DHT22;3122;48.208;11.174;2023-07-31T20:50:38;18.90;1.00
6178;DHT22;3122;48.208;11.174;2023-07-31T20:55:39;18.90;1.00
6178;DHT22;3122;48.208;11.174;2023-07-31T21:00:40;18.90;1.00
6178;DHT22;3122;48.208;11.174;2023-07-31T21:05:51;18.90;1.00
6178;DHT22;3122;48.208;11.174;2023-07-31T21:10:52;18.80;1.00
6178;DHT22;3122;48.208;11.174;2023-07-31T21:15:59;18.80;1.00
6178;DHT22;3122;48.208;11.174;2023-07-31T21:21:00;18.80;1.00
6178;DHT22;3122;48.208;11.174;2023-07-31T21:26:01;18.70;1.00
6178;DHT22;3122;48.208;11.174;2023-07-31T21:31:09;18.70;1.00
6178;DHT22;3122;48.208;11.174;2023-07-31T21:36:11;18.80;1.00
6178;DHT22;3122;48.208;11.174;2023-07-31T21:41:12;18.70;1.00
6178;DHT22;3122;48.208;11.174;2023-07-31T21:46:12;18.70;1.00
6178;DHT22;3122;48.208;11.174;2023-07-31T21:51:13;18.60;1.00
6178;DHT22;3122;48.208;11.174;2023-07-31T21:56:14;18.60;1.00
6178;DHT22;3122;48.208;11.174;2023-07-31T22:01:15;18.50;1.00
6178;DHT22;3122;48.208;11.174;2023-07-31T22:06:17;18.60;1.00
6178;DHT22;3122;48.208;11.174;2023-07-31T22:11:18;18.50;1.00
6178;DHT22;3122;48.208;11.174;2023-07-31T22:16:22;18.50;1.00
6178;DHT22;3122;48.208;11.174;2023-07-31T22:21:23;18.50;1.00
6178;DHT22;3122;48.208;11.174;2023-07-31T22:26:24;18.60;1.00
6178;DHT22;3122;48.208;11.174;2023-07-31T22:31:25;18.50;1.00
6178;DHT22;3122;48.208;11.174;2023-07-31T22:36:26;18.50;1.00
6178;DHT22;3122;48.208;11.174;2023-07-31T22:41:26;18.60;1.00
6178;DHT22;3122;48.208;11.174;2023-07-31T22:46:27;18.70;1.00
6178;DHT22;3122;48.208;11.174;2023-07-31T22:51:27;18.70;1.00
6178;DHT22;3122;48.208;11.174;2023-07-31T22:56:28;18.60;1.00
6178;DHT22;3122;48.208;11.174;2023-07-31T23:01:28;18.60;1.00
6178;DHT22;3122;48.208;11.174;2023-07-31T23:06:29;18.60;1.00
6178;DHT22;3122;48.208;11.174;2023-07-31T23:11:30;18.60;1.00
6178;DHT22;3122;48.208;11.174;2023-07-31T23:16:30;18.50;1.00
6178;DHT22;3122;48.208;11.174;2023-07-31T23:21:31;18.50;1.00
6178;DHT22;3122;48.208;11.174;2023-07-31T23:26:33;18.50;1.00
6178;DHT22;3122;48.208;11.174;2023-07-31T23:31:33;18.50;1.00
6178;DHT22;3122;48.208;11.174;2023-07-31T23:36:34;18.50;1.00
6178;DHT22;3122;48.208;11.174;2023-07-31T23:41:34;18.50;1.00
6178;DHT22;3122;48.208;11.174;2023-07-31T23:46:35;18.40;1.00
6178;DHT22;3122;48.208;11.174;2023-07-31T23:51:35;18.50;1.00
6178;DHT22;3122;48.208;11.174;2023-07-31T23:56:39;18.40;1.00
